Saltcoats, United Kingdom
Current Conditions -  °F | °C
As of 8:50 AM on Wednesday 26 Nov 2014 (Local Time) from EGPK Reporting Station
Broken Clouds Broken Clouds  
Wind Chill: 39°   Ceiling: 4700
Heat Index: 39°   Visibility: 6mi
Dew Point: 37°   Wind: 0mph
Humidity: 93%   Direction: NA
Pressure: 30"   Gusts: NA
Location:  55.62°N, 4.8°W
Report Text: EGPK 260850Z 00000KT 9999 BKN047 04/03 Q1016
Loading
Personal Weather Stations






























Interactive Weather Map New forecast layout! Learn more

10-Day Weather Forecast

Advertisements
Track Severe Weather on mobile